sensor_id;sensor_type;location;lat;lon;timestamp;pressure;altitude;pressure_sealevel;temperature;humidity
4617;BME280;2321;42.704;23.384;2023-11-21T00:02:02;95294.31;;;4.08;100.00
4617;BME280;2321;42.704;23.384;2023-11-21T00:04:29;95295.09;;;4.08;100.00
4617;BME280;2321;42.704;23.384;2023-11-21T00:06:56;95317.84;;;4.09;100.00
4617;BME280;2321;42.704;23.384;2023-11-21T00:09:23;95303.53;;;4.12;100.00
4617;BME280;2321;42.704;23.384;2023-11-21T00:11:51;95298.44;;;4.10;100.00
4617;BME280;2321;42.704;23.384;2023-11-21T00:14:17;95297.44;;;4.11;100.00
4617;BME280;2321;42.704;23.384;2023-11-21T00:16:44;95298.25;;;4.12;100.00
4617;BME280;2321;42.704;23.384;2023-11-21T00:19:11;95298.13;;;4.13;100.00
4617;BME280;2321;42.704;23.384;2023-11-21T00:21:38;95299.75;;;4.14;100.00
4617;BME280;2321;42.704;23.384;2023-11-21T00:24:05;95302.09;;;4.18;100.00
4617;BME280;2321;42.704;23.384;2023-11-21T00:26:31;95307.34;;;4.18;100.00
4617;BME280;2321;42.704;23.384;2023-11-21T00:29:03;95298.13;;;4.13;100.00
4617;BME280;2321;42.704;23.384;2023-11-21T00:31:33;95296.47;;;4.12;100.00
4617;BME280;2321;42.704;23.384;2023-11-21T00:34:01;95280.47;;;4.14;100.00
4617;BME280;2321;42.704;23.384;2023-11-21T00:36:28;95288.06;;;4.17;100.00
4617;BME280;2321;42.704;23.384;2023-11-21T00:38:55;95287.94;;;4.19;100.00
4617;BME280;2321;42.704;23.384;2023-11-21T00:41:22;95287.78;;;4.20;100.00
4617;BME280;2321;42.704;23.384;2023-11-21T00:43:48;95292.22;;;4.20;100.00
4617;BME280;2321;42.704;23.384;2023-11-21T00:46:17;95294.69;;;4.21;100.00
4617;BME280;2321;42.704;23.384;2023-11-21T00:48:43;95296.38;;;4.22;100.00
4617;BME280;2321;42.704;23.384;2023-11-21T00:51:10;95299.13;;;4.21;100.00
4617;BME280;2321;42.704;23.384;2023-11-21T00:53:37;95297.81;;;4.17;100.00
4617;BME280;2321;42.704;23.384;2023-11-21T00:56:05;95295.50;;;4.13;100.00
4617;BME280;2321;42.704;23.384;2023-11-21T00:58:33;95284.41;;;4.10;100.00
4617;BME280;2321;42.704;23.384;2023-11-21T01:01:00;95284.56;;;4.08;100.00
4617;BME280;2321;42.704;23.384;2023-11-21T01:03:29;95288.50;;;4.04;100.00
4617;BME280;2321;42.704;23.384;2023-11-21T01:05:56;95291.13;;;4.04;100.00
4617;BME280;2321;42.704;23.384;2023-11-21T01:08:24;95287.50;;;4.05;100.00
4617;BME280;2321;42.704;23.384;2023-11-21T01:10:50;95279.59;;;4.05;100.00
4617;BME280;2321;42.704;23.384;2023-11-21T01:13:17;95282.22;;;4.05;100.00
4617;BME280;2321;42.704;23.384;2023-11-21T01:15:44;95284.50;;;4.00;100.00
4617;BME280;2321;42.704;23.384;2023-11-21T01:18:11;95286.78;;;3.95;100.00
4617;BME280;2321;42.704;23.384;2023-11-21T01:20:39;95286.78;;;3.95;100.00
4617;BME280;2321;42.704;23.384;2023-11-21T01:23:06;95290.56;;;3.92;100.00
4617;BME280;2321;42.704;23.384;2023-11-21T01:25:32;95291.84;;;3.88;100.00
4617;BME280;2321;42.704;23.384;2023-11-21T01:27:59;95285.19;;;3.84;100.00
4617;BME280;2321;42.704;23.384;2023-11-21T01:30:26;95280.25;;;3.80;100.00
4617;BME280;2321;42.704;23.384;2023-11-21T01:32:52;95273.16;;;3.81;100.00
4617;BME280;2321;42.704;23.384;2023-11-21T01:35:19;95269.03;;;3.78;100.00
4617;BME280;2321;42.704;23.384;2023-11-21T01:37:47;95275.97;;;3.79;100.00
4617;BME280;2321;42.704;23.384;2023-11-21T01:40:14;95280.72;;;3.76;100.00
4617;BME280;2321;42.704;23.384;2023-11-21T01:42:41;95289.44;;;3.76;100.00
4617;BME280;2321;42.704;23.384;2023-11-21T01:45:09;95289.75;;;3.73;100.00
4617;BME280;2321;42.704;23.384;2023-11-21T01:47:37;95293.81;;;3.67;100.00
4617;BME280;2321;42.704;23.384;2023-11-21T01:50:05;95280.78;;;3.66;100.00
4617;BME280;2321;42.704;23.384;2023-11-21T01:52:32;95274.31;;;3.60;100.00
4617;BME280;2321;42.704;23.384;2023-11-21T01:55:01;95273.66;;;3.58;100.00
4617;BME280;2321;42.704;23.384;2023-11-21T01:57:29;95269.22;;;3.58;100.00
4617;BME280;2321;42.704;23.384;2023-11-21T01:59:56;95273.50;;;3.59;100.00
4617;BME280;2321;42.704;23.384;2023-11-21T02:02:24;95280.88;;;3.56;100.00
4617;BME280;2321;42.704;23.384;2023-11-21T02:04:51;95277.72;;;3.52;100.00
4617;BME280;2321;42.704;23.384;2023-11-21T02:07:17;95271.75;;;3.50;100.00
4617;BME280;2321;42.704;23.384;2023-11-21T02:09:44;95269.13;;;3.50;100.00
4617;BME280;2321;42.704;23.384;2023-11-21T02:12:13;95263.19;;;3.48;100.00
4617;BME280;2321;42.704;23.384;2023-11-21T02:14:40;95267.50;;;3.49;100.00
4617;BME280;2321;42.704;23.384;2023-11-21T02:17:07;95274.03;;;3.45;100.00
4617;BME280;2321;42.704;23.384;2023-11-21T02:19:34;95273.06;;;3.46;100.00
4617;BME280;2321;42.704;23.384;2023-11-21T02:22:00;95263.38;;;3.46;100.00
4617;BME280;2321;42.704;23.384;2023-11-21T02:24:31;95266.97;;;3.45;100.00
4617;BME280;2321;42.704;23.384;2023-11-21T02:26:58;95264.34;;;3.45;100.00
4617;BME280;2321;42.704;23.384;2023-11-21T02:29:25;95266.00;;;3.46;100.00
4617;BME280;2321;42.704;23.384;2023-11-21T02:31:53;95266.97;;;3.45;100.00
4617;BME280;2321;42.704;23.384;2023-11-21T02:34:20;95267.09;;;3.44;100.00
4617;BME280;2321;42.704;23.384;2023-11-21T02:36:47;95266.97;;;3.45;100.00
4617;BME280;2321;42.704;23.384;2023-11-21T02:39:14;95267.09;;;3.44;100.00
4617;BME280;2321;42.704;23.384;2023-11-21T02:41:43;95260.19;;;3.43;100.00
4617;BME280;2321;42.704;23.384;2023-11-21T02:44:09;95262.00;;;3.42;100.00
4617;BME280;2321;42.704;23.384;2023-11-21T02:46:36;95262.97;;;3.41;100.00
4617;BME280;2321;42.704;23.384;2023-11-21T02:49:04;95260.50;;;3.40;100.00
4617;BME280;2321;42.704;23.384;2023-11-21T02:51:31;95259.00;;;3.37;100.00
4617;BME280;2321;42.704;23.384;2023-11-21T02:53:58;95263.56;;;3.35;100.00
4617;BME280;2321;42.704;23.384;2023-11-21T02:56:27;95268.16;;;3.33;100.00
4617;BME280;2321;42.704;23.384;2023-11-21T02:58:56;95267.34;;;3.32;100.00
4617;BME280;2321;42.704;23.384;2023-11-21T03:01:23;95265.84;;;3.30;100.00
4617;BME280;2321;42.704;23.384;2023-11-21T03:03:50;95270.25;;;3.29;100.00
4617;BME280;2321;42.704;23.384;2023-11-21T03:06:17;95268.75;;;3.26;100.00
4617;BME280;2321;42.704;23.384;2023-11-21T03:08:44;95265.31;;;3.26;100.00
4617;BME280;2321;42.704;23.384;2023-11-21T03:11:10;95270.84;;;3.23;100.00
4617;BME280;2321;42.704;23.384;2023-11-21T03:13:38;95268.97;;;3.15;100.00
4617;BME280;2321;42.704;23.384;2023-11-21T03:16:06;95274.38;;;3.13;100.00
4617;BME280;2321;42.704;23.384;2023-11-21T03:18:33;95267.47;;;3.12;100.00
4617;BME280;2321;42.704;23.384;2023-11-21T03:21:00;95265.66;;;3.13;100.00
4617;BME280;2321;42.704;23.384;2023-11-21T03:23:26;95265.66;;;3.13;100.00
4617;BME280;2321;42.704;23.384;2023-11-21T03:25:53;95267.63;;;3.11;100.00
4617;BME280;2321;42.704;23.384;2023-11-21T03:28:20;95268.44;;;3.11;100.00
4617;BME280;2321;42.704;23.384;2023-11-21T03:30:46;95278.81;;;3.13;100.00
4617;BME280;2321;42.704;23.384;2023-11-21T03:33:15;95276.19;;;3.13;100.00
4617;BME280;2321;42.704;23.384;2023-11-21T03:35:42;95279.22;;;3.18;100.00
4617;BME280;2321;42.704;23.384;2023-11-21T03:38:09;95271.31;;;3.18;100.00
4617;BME280;2321;42.704;23.384;2023-11-21T03:40:37;95265.22;;;3.18;100.00
4617;BME280;2321;42.704;23.384;2023-11-21T03:43:04;95264.56;;;3.15;100.00
4617;BME280;2321;42.704;23.384;2023-11-21T03:45:32;95265.22;;;3.18;100.00
4617;BME280;2321;42.704;23.384;2023-11-21T03:47:58;95268.53;;;3.20;100.00
4617;BME280;2321;42.704;23.384;2023-11-21T03:50:28;95256.19;;;3.20;100.00
4617;BME280;2321;42.704;23.384;2023-11-21T03:52:54;95266.06;;;3.18;100.00
4617;BME280;2321;42.704;23.384;2023-11-21T03:55:21;95249.44;;;3.18;100.00
4617;BME280;2321;42.704;23.384;2023-11-21T03:57:49;95253.03;;;3.16;100.00
4617;BME280;2321;42.704;23.384;2023-11-21T04:00:16;95247.78;;;3.16;100.00
4617;BME280;2321;42.704;23.384;2023-11-21T04:02:45;95245.44;;;3.13;100.00
4617;BME280;2321;42.704;23.384;2023-11-21T04:05:11;95250.16;;;3.10;100.00
4617;BME280;2321;42.704;23.384;2023-11-21T04:07:39;95253.63;;;3.10;100.00
4617;BME280;2321;42.704;23.384;2023-11-21T04:10:07;95248.66;;;3.07;100.00
4617;BME280;2321;42.704;23.384;2023-11-21T04:12:34;95242.72;;;3.05;100.00
4617;BME280;2321;42.704;23.384;2023-11-21T04:15:00;95248.81;;;3.05;100.00
4617;BME280;2321;42.704;23.384;2023-11-21T04:17:27;95250.78;;;3.03;100.00
4617;BME280;2321;42.704;23.384;2023-11-21T04:19:54;95239.56;;;3.01;100.00
4617;BME280;2321;42.704;23.384;2023-11-21T04:22:20;95243.31;;;2.99;100.00
4617;BME280;2321;42.704;23.384;2023-11-21T04:24:48;95237.53;;;2.95;100.00
4617;BME280;2321;42.704;23.384;2023-11-21T04:27:15;95244.75;;;2.93;100.00
4617;BME280;2321;42.704;23.384;2023-11-21T04:29:43;95248.06;;;2.95;100.00
4617;BME280;2321;42.704;23.384;2023-11-21T04:32:10;95249.34;;;2.91;100.00
4617;BME280;2321;42.704;23.384;2023-11-21T04:34:37;95247.69;;;2.90;100.00
4617;BME280;2321;42.704;23.384;2023-11-21T04:37:04;95243.00;;;2.83;100.00
4617;BME280;2321;42.704;23.384;2023-11-21T04:39:31;95243.16;;;2.82;100.00
4617;BME280;2321;42.704;23.384;2023-11-21T04:41:59;95246.31;;;2.86;100.00
4617;BME280;2321;42.704;23.384;2023-11-21T04:44:26;95241.34;;;2.82;100.00
4617;BME280;2321;42.704;23.384;2023-11-21T04:46:53;95248.72;;;2.79;100.00
4617;BME280;2321;42.704;23.384;2023-11-21T04:49:19;95247.88;;;2.78;100.00
4617;BME280;2321;42.704;23.384;2023-11-21T04:51:46;95248.56;;;2.80;100.00
4617;BME280;2321;42.704;23.384;2023-11-21T04:54:12;95255.22;;;2.75;100.00
4617;BME280;2321;42.704;23.384;2023-11-21T04:56:39;95264.09;;;2.74;100.00
4617;BME280;2321;42.704;23.384;2023-11-21T04:59:08;95264.91;;;2.74;100.00
4617;BME280;2321;42.704;23.384;2023-11-21T05:01:35;95258.28;;;2.70;100.00
4617;BME280;2321;42.704;23.384;2023-11-21T05:04:02;95257.63;;;2.68;100.00
4617;BME280;2321;42.704;23.384;2023-11-21T05:06:31;95246.44;;;2.66;100.00
4617;BME280;2321;42.704;23.384;2023-11-21T05:08:58;95249.88;;;2.66;100.00
4617;BME280;2321;42.704;23.384;2023-11-21T05:11:25;95254.41;;;2.74;100.00
4617;BME280;2321;42.704;23.384;2023-11-21T05:13:51;95248.19;;;2.75;100.00
4617;BME280;2321;42.704;23.384;2023-11-21T05:16:20;95250.66;;;2.77;100.00
4617;BME280;2321;42.704;23.384;2023-11-21T05:18:47;95239.53;;;2.83;100.00
4617;BME280;2321;42.704;23.384;2023-11-21T05:21:15;95242.72;;;2.87;100.00
4617;BME280;2321;42.704;23.384;2023-11-21T05:23:42;95239.94;;;2.88;100.00
4617;BME280;2321;42.704;23.384;2023-11-21T05:26:09;95239.94;;;2.88;100.00
4617;BME280;2321;42.704;23.384;2023-11-21T05:28:35;95243.25;;;2.90;100.00
4617;BME280;2321;42.704;23.384;2023-11-21T05:31:02;95255.28;;;2.93;100.00
4617;BME280;2321;42.704;23.384;2023-11-21T05:33:30;95265.50;;;2.96;100.00
4617;BME280;2321;42.704;23.384;2023-11-21T05:35:58;95261.75;;;2.99;100.00
4617;BME280;2321;42.704;23.384;2023-11-21T05:38:25;95264.25;;;3.00;100.00
4617;BME280;2321;42.704;23.384;2023-11-21T05:40:51;95262.28;;;3.02;100.00
4617;BME280;2321;42.704;23.384;2023-11-21T05:43:18;95265.75;;;3.03;100.00
4617;BME280;2321;42.704;23.384;2023-11-21T05:45:45;95264.63;;;3.05;100.00
4617;BME280;2321;42.704;23.384;2023-11-21T05:48:12;95271.53;;;3.07;100.00
4617;BME280;2321;42.704;23.384;2023-11-21T05:50:40;95272.78;;;3.02;100.00
4617;BME280;2321;42.704;23.384;2023-11-21T05:53:07;95270.00;;;3.04;100.00
4617;BME280;2321;42.704;23.384;2023-11-21T05:55:35;95259.66;;;3.02;100.00
4617;BME280;2321;42.704;23.384;2023-11-21T05:58:02;95255.56;;;2.90;100.00
4617;BME280;2321;42.704;23.384;2023-11-21T06:00:28;95262.63;;;2.89;100.00
4617;BME280;2321;42.704;23.384;2023-11-21T06:02:57;95259.41;;;2.96;100.00
4617;BME280;2321;42.704;23.384;2023-11-21T06:05:24;95255.94;;;2.95;100.00
4617;BME280;2321;42.704;23.384;2023-11-21T06:07:52;95263.69;;;2.97;100.00
4617;BME280;2321;42.704;23.384;2023-11-21T06:10:19;95261.75;;;2.99;100.00
4617;BME280;2321;42.704;23.384;2023-11-21T06:12:46;95262.13;;;3.04;100.00
4617;BME280;2321;42.704;23.384;2023-11-21T06:15:13;95262.81;;;3.06;100.00
4617;BME280;2321;42.704;23.384;2023-11-21T06:17:40;95271.38;;;3.08;100.00
4617;BME280;2321;42.704;23.384;2023-11-21T06:20:07;95270.25;;;3.11;100.00
4617;BME280;2321;42.704;23.384;2023-11-21T06:22:36;95265.22;;;3.18;100.00
4617;BME280;2321;42.704;23.384;2023-11-21T06:25:05;95273.34;;;3.24;100.00
4617;BME280;2321;42.704;23.384;2023-11-21T06:27:33;95274.19;;;3.25;100.00
4617;BME280;2321;42.704;23.384;2023-11-21T06:30:00;95277.84;;;3.32;100.00
4617;BME280;2321;42.704;23.384;2023-11-21T06:32:26;95279.22;;;3.36;100.00
4617;BME280;2321;42.704;23.384;2023-11-21T06:34:54;95277.94;;;3.41;100.00
4617;BME280;2321;42.704;23.384;2023-11-21T06:37:21;95287.06;;;3.46;100.00
4617;BME280;2321;42.704;23.384;2023-11-21T06:39:48;95278.69;;;3.51;100.00
4617;BME280;2321;42.704;23.384;2023-11-21T06:42:18;95281.84;;;3.55;100.00
4617;BME280;2321;42.704;23.384;2023-11-21T06:44:45;95284.19;;;3.58;100.00
4617;BME280;2321;42.704;23.384;2023-11-21T06:47:12;95287.50;;;3.60;100.00
4617;BME280;2321;42.704;23.384;2023-11-21T06:49:39;95290.50;;;3.65;100.00
4617;BME280;2321;42.704;23.384;2023-11-21T06:52:05;95294.19;;;3.73;100.00
4617;BME280;2321;42.704;23.384;2023-11-21T06:54:33;95292.22;;;3.75;100.00
4617;BME280;2321;42.704;23.384;2023-11-21T06:57:00;95288.84;;;3.83;100.00
4617;BME280;2321;42.704;23.384;2023-11-21T06:59:29;95291.53;;;3.91;100.00
4617;BME280;2321;42.704;23.384;2023-11-21T07:01:56;95289.94;;;3.98;100.00
4617;BME280;2321;42.704;23.384;2023-11-21T07:04:22;95287.50;;;4.05;100.00
4617;BME280;2321;42.704;23.384;2023-11-21T07:06:50;95301.56;;;4.14;100.00
4617;BME280;2321;42.704;23.384;2023-11-21T07:09:17;95301.78;;;4.21;100.00
4617;BME280;2321;42.704;23.384;2023-11-21T07:11:47;95296.88;;;4.26;100.00
4617;BME280;2321;42.704;23.384;2023-11-21T07:14:13;95290.00;;;4.33;100.00
4617;BME280;2321;42.704;23.384;2023-11-21T07:16:41;95284.28;;;4.38;100.00
4617;BME280;2321;42.704;23.384;2023-11-21T07:19:08;95284.63;;;4.43;100.00
4617;BME280;2321;42.704;23.384;2023-11-21T07:21:35;95283.03;;;4.51;100.00
4617;BME280;2321;42.704;23.384;2023-11-21T07:24:03;95283.19;;;4.57;100.00
4617;BME280;2321;42.704;23.384;2023-11-21T07:26:31;95288.34;;;4.59;100.00
4617;BME280;2321;42.704;23.384;2023-11-21T07:28:58;95283.25;;;4.66;100.00
4617;BME280;2321;42.704;23.384;2023-11-21T07:31:25;95299.09;;;4.66;100.00
4617;BME280;2321;42.704;23.384;2023-11-21T07:33:53;95292.66;;;4.68;100.00
4617;BME280;2321;42.704;23.384;2023-11-21T07:36:22;95296.31;;;4.76;100.00
4617;BME280;2321;42.704;23.384;2023-11-21T07:38:49;95295.00;;;4.80;100.00
4617;BME280;2321;42.704;23.384;2023-11-21T07:41:16;95293.03;;;4.82;100.00
4617;BME280;2321;42.704;23.384;2023-11-21T07:43:43;95286.63;;;4.85;100.00
4617;BME280;2321;42.704;23.384;2023-11-21T07:46:10;95286.16;;;4.89;100.00
4617;BME280;2321;42.704;23.384;2023-11-21T07:48:37;95273.31;;;4.95;100.00
4617;BME280;2321;42.704;23.384;2023-11-21T07:51:06;95279.41;;;4.95;100.00
4617;BME280;2321;42.704;23.384;2023-11-21T07:53:33;95280.56;;;5.01;100.00
4617;BME280;2321;42.704;23.384;2023-11-21T07:56:02;95263.97;;;5.09;100.00
4617;BME280;2321;42.704;23.384;2023-11-21T07:58:29;95268.75;;;5.14;100.00
4617;BME280;2321;42.704;23.384;2023-11-21T08:00:56;95267.59;;;5.16;100.00
4617;BME280;2321;42.704;23.384;2023-11-21T08:03:23;95267.44;;;5.18;100.00
4617;BME280;2321;42.704;23.384;2023-11-21T08:05:51;95259.19;;;5.21;100.00
4617;BME280;2321;42.704;23.384;2023-11-21T08:08:19;95265.78;;;5.17;100.00
4617;BME280;2321;42.704;23.384;2023-11-21T08:10:46;95257.84;;;5.17;100.00
4617;BME280;2321;42.704;23.384;2023-11-21T08:13:21;95256.56;;;5.21;100.00
4617;BME280;2321;42.704;23.384;2023-11-21T08:15:48;95245.00;;;5.22;100.00
4617;BME280;2321;42.704;23.384;2023-11-21T08:18:14;95256.06;;;5.26;100.00
4617;BME280;2321;42.704;23.384;2023-11-21T08:20:42;95253.44;;;5.34;100.00
4617;BME280;2321;42.704;23.384;2023-11-21T08:23:10;95262.19;;;5.43;100.00
4617;BME280;2321;42.704;23.384;2023-11-21T08:25:38;95265.19;;;5.48;100.00
4617;BME280;2321;42.704;23.384;2023-11-21T08:28:04;95271.63;;;5.54;100.00
4617;BME280;2321;42.704;23.384;2023-11-21T08:30:31;95257.09;;;5.50;100.00
4617;BME280;2321;42.704;23.384;2023-11-21T08:32:58;95267.31;;;5.53;100.00
4617;BME280;2321;42.704;23.384;2023-11-21T08:35:24;95266.66;;;5.59;100.00
4617;BME280;2321;42.704;23.384;2023-11-21T08:37:51;95264.34;;;5.64;100.00
4617;BME280;2321;42.704;23.384;2023-11-21T08:40:18;95252.47;;;5.69;100.00
4617;BME280;2321;42.704;23.384;2023-11-21T08:42:47;95261.38;;;5.67;100.00
4617;BME280;2321;42.704;23.384;2023-11-21T08:45:14;95252.78;;;5.74;100.00
4617;BME280;2321;42.704;23.384;2023-11-21T08:47:42;95251.50;;;5.78;100.00
4617;BME280;2321;42.704;23.384;2023-11-21T08:50:10;95247.19;;;5.77;100.00
4617;BME280;2321;42.704;23.384;2023-11-21T08:52:37;95246.84;;;5.80;100.00
4617;BME280;2321;42.704;23.384;2023-11-21T08:55:04;95245.53;;;5.84;100.00
4617;BME280;2321;42.704;23.384;2023-11-21T08:57:33;95249.31;;;5.90;100.00
4617;BME280;2321;42.704;23.384;2023-11-21T09:00:01;95234.13;;;6.01;100.00
4617;BME280;2321;42.704;23.384;2023-11-21T09:02:30;95238.25;;;6.12;100.00
4617;BME280;2321;42.704;23.384;2023-11-21T09:04:59;95230.66;;;6.17;100.00
4617;BME280;2321;42.704;23.384;2023-11-21T09:07:28;95216.09;;;6.29;100.00
4617;BME280;2321;42.704;23.384;2023-11-21T09:09:54;95208.47;;;6.35;100.00
4617;BME280;2321;42.704;23.384;2023-11-21T09:12:21;95207.63;;;6.42;100.00
4617;BME280;2321;42.704;23.384;2023-11-21T09:14:50;95195.81;;;6.53;100.00
4617;BME280;2321;42.704;23.384;2023-11-21T09:17:18;95193.31;;;6.60;100.00
4617;BME280;2321;42.704;23.384;2023-11-21T09:19:44;95173.63;;;6.71;100.00
4617;BME280;2321;42.704;23.384;2023-11-21T09:22:15;95175.91;;;6.74;100.00
4617;BME280;2321;42.704;23.384;2023-11-21T09:24:42;95176.50;;;6.85;100.00
4617;BME280;2321;42.704;23.384;2023-11-21T09:27:08;95171.97;;;6.94;100.00
4617;BME280;2321;42.704;23.384;2023-11-21T09:29:36;95160.69;;;7.00;100.00
4617;BME280;2321;42.704;23.384;2023-11-21T09:32:03;95164.31;;;7.07;100.00
4617;BME280;2321;42.704;23.384;2023-11-21T09:34:33;95154.13;;;7.19;100.00
4617;BME280;2321;42.704;23.384;2023-11-21T09:37:01;95142.28;;;7.30;100.00
4617;BME280;2321;42.704;23.384;2023-11-21T09:39:30;95131.16;;;7.35;100.00
4617;BME280;2321;42.704;23.384;2023-11-21T09:42:00;95119.66;;;7.43;100.00
4617;BME280;2321;42.704;23.384;2023-11-21T09:44:31;95122.91;;;7.54;100.00
4617;BME280;2321;42.704;23.384;2023-11-21T09:46:59;95110.84;;;7.66;100.00
4617;BME280;2321;42.704;23.384;2023-11-21T09:49:26;95116.69;;;7.77;100.00
4617;BME280;2321;42.704;23.384;2023-11-21T09:51:54;95106.19;;;7.83;100.00
4617;BME280;2321;42.704;23.384;2023-11-21T09:54:22;95097.31;;;7.91;100.00
4617;BME280;2321;42.704;23.384;2023-11-21T09:56:49;95093.78;;;7.99;100.00
4617;BME280;2321;42.704;23.384;2023-11-21T09:59:16;95074.75;;;8.11;100.00
4617;BME280;2321;42.704;23.384;2023-11-21T10:01:43;95077.75;;;8.23;100.00
4617;BME280;2321;42.704;23.384;2023-11-21T10:04:11;95072.31;;;8.31;100.00
4617;BME280;2321;42.704;23.384;2023-11-21T10:06:38;95062.09;;;8.43;100.00
4617;BME280;2321;42.704;23.384;2023-11-21T10:09:08;95060.56;;;8.56;100.00
4617;BME280;2321;42.704;23.384;2023-11-21T10:11:37;95069.72;;;8.68;100.00
4617;BME280;2321;42.704;23.384;2023-11-21T10:14:06;95066.19;;;8.83;100.00
4617;BME280;2321;42.704;23.384;2023-11-21T10:16:35;95072.81;;;8.94;100.00
4617;BME280;2321;42.704;23.384;2023-11-21T10:19:03;95071.47;;;9.05;100.00
4617;BME280;2321;42.704;23.384;2023-11-21T10:21:32;95061.50;;;9.07;100.00
4617;BME280;2321;42.704;23.384;2023-11-21T10:23:58;95053.34;;;9.09;100.00
4617;BME280;2321;42.704;23.384;2023-11-21T10:26:26;95053.78;;;9.12;100.00
4617;BME280;2321;42.704;23.384;2023-11-21T10:28:57;95044.00;;;9.13;100.00
4617;BME280;2321;42.704;23.384;2023-11-21T10:31:23;95059.16;;;9.19;100.00
4617;BME280;2321;42.704;23.384;2023-11-21T10:33:50;95040.34;;;9.21;100.00
4617;BME280;2321;42.704;23.384;2023-11-21T10:36:24;95032.22;;;9.22;100.00
4617;BME280;2321;42.704;23.384;2023-11-21T10:38:51;95037.31;;;9.24;100.00
4617;BME280;2321;42.704;23.384;2023-11-21T10:41:18;95024.25;;;9.29;100.00
4617;BME280;2321;42.704;23.384;2023-11-21T10:43:46;95028.00;;;9.35;100.00
4617;BME280;2321;42.704;23.384;2023-11-21T10:46:14;95028.25;;;9.40;100.00
4617;BME280;2321;42.704;23.384;2023-11-21T10:48:41;95020.88;;;9.42;100.00
4617;BME280;2321;42.704;23.384;2023-11-21T10:51:08;95018.22;;;9.42;100.00
4617;BME280;2321;42.704;23.384;2023-11-21T10:53:38;95018.88;;;9.44;100.00
4617;BME280;2321;42.704;23.384;2023-11-21T10:56:05;95022.34;;;9.45;100.00
4617;BME280;2321;42.704;23.384;2023-11-21T10:58:33;95016.00;;;9.46;100.00
4617;BME280;2321;42.704;23.384;2023-11-21T11:01:03;95011.09;;;9.43;100.00
4617;BME280;2321;42.704;23.384;2023-11-21T11:03:32;95006.00;;;9.48;100.00
4617;BME280;2321;42.704;23.384;2023-11-21T11:05:59;94998.84;;;9.48;100.00
4617;BME280;2321;42.704;23.384;2023-11-21T11:08:26;95006.00;;;9.48;100.00
4617;BME280;2321;42.704;23.384;2023-11-21T11:10:53;94996.00;;;9.50;100.00
4617;BME280;2321;42.704;23.384;2023-11-21T11:13:20;94992.75;;;9.55;100.00
4617;BME280;2321;42.704;23.384;2023-11-21T11:15:48;94996.47;;;9.61;100.00
4617;BME280;2321;42.704;23.384;2023-11-21T11:18:16;94988.09;;;9.64;100.00
4617;BME280;2321;42.704;23.384;2023-11-21T11:20:43;94993.69;;;9.69;100.00
4617;BME280;2321;42.704;23.384;2023-11-21T11:23:16;94981.22;;;9.76;100.00
4617;BME280;2321;42.704;23.384;2023-11-21T11:25:53;94966.53;;;9.80;100.00
4617;BME280;2321;42.704;23.384;2023-11-21T11:28:27;94965.72;;;9.87;100.00
4617;BME280;2321;42.704;23.384;2023-11-21T11:30:57;94962.03;;;9.88;100.00
4617;BME280;2321;42.704;23.384;2023-11-21T11:33:33;94961.25;;;9.94;100.00
4617;BME280;2321;42.704;23.384;2023-11-21T11:36:05;94962.06;;;9.95;100.00
4617;BME280;2321;42.704;23.384;2023-11-21T11:38:33;94954.91;;;9.95;100.00
4617;BME280;2321;42.704;23.384;2023-11-21T11:41:01;94954.69;;;9.97;100.00
4617;BME280;2321;42.704;23.384;2023-11-21T11:43:29;94945.31;;;10.01;100.00
4617;BME280;2321;42.704;23.384;2023-11-21T11:45:58;94945.91;;;10.03;100.00
4617;BME280;2321;42.704;23.384;2023-11-21T11:48:25;94949.19;;;9.98;100.00
4617;BME280;2321;42.704;23.384;2023-11-21T11:51:03;94959.84;;;9.98;100.00
4617;BME280;2321;42.704;23.384;2023-11-21T11:53:35;94959.00;;;9.98;100.00
4617;BME280;2321;42.704;23.384;2023-11-21T11:59:00;94972.13;;;9.99;100.00
4617;BME280;2321;42.704;23.384;2023-11-21T12:01:28;94965.56;;;9.95;100.00
4617;BME280;2321;42.704;23.384;2023-11-21T12:06:43;94955.91;;;9.87;100.00
4617;BME280;2321;42.704;23.384;2023-11-21T12:09:11;94962.44;;;9.85;100.00
4617;BME280;2321;42.704;23.384;2023-11-21T12:11:40;94967.56;;;9.86;100.00
4617;BME280;2321;42.704;23.384;2023-11-21T12:14:09;94962.44;;;9.85;100.00
4617;BME280;2321;42.704;23.384;2023-11-21T12:16:35;94959.75;;;9.78;100.00
4617;BME280;2321;42.704;23.384;2023-11-21T12:19:02;94968.31;;;9.73;100.00
4617;BME280;2321;42.704;23.384;2023-11-21T12:21:29;94955.63;;;9.75;100.00
4617;BME280;2321;42.704;23.384;2023-11-21T12:23:58;94958.03;;;9.63;100.00
4617;BME280;2321;42.704;23.384;2023-11-21T12:26:25;94948.41;;;9.55;100.00
4617;BME280;2321;42.704;23.384;2023-11-21T12:28:52;94951.41;;;9.45;100.00
4617;BME280;2321;42.704;23.384;2023-11-21T12:31:20;94949.59;;;9.46;100.00
4617;BME280;2321;42.704;23.384;2023-11-21T12:33:47;94951.81;;;9.42;100.00
4617;BME280;2321;42.704;23.384;2023-11-21T12:36:14;94956.91;;;9.37;100.00
4617;BME280;2321;42.704;23.384;2023-11-21T12:38:41;94963.59;;;9.33;100.00
4617;BME280;2321;42.704;23.384;2023-11-21T12:41:09;94965.19;;;9.27;100.00
4617;BME280;2321;42.704;23.384;2023-11-21T12:43:36;94956.78;;;9.17;100.00
4617;BME280;2321;42.704;23.384;2023-11-21T12:46:04;94954.69;;;9.12;100.00
4617;BME280;2321;42.704;23.384;2023-11-21T12:48:32;94952.63;;;9.07;100.00
4617;BME280;2321;42.704;23.384;2023-11-21T12:50:58;94942.00;;;9.07;100.00
4617;BME280;2321;42.704;23.384;2023-11-21T12:53:25;94937.75;;;9.13;100.00
4617;BME280;2321;42.704;23.384;2023-11-21T12:55:58;94936.09;;;9.12;100.00
4617;BME280;2321;42.704;23.384;2023-11-21T12:58:27;94929.97;;;9.11;100.00
4617;BME280;2321;42.704;23.384;2023-11-21T13:00:54;94922.19;;;9.10;100.00
4617;BME280;2321;42.704;23.384;2023-11-21T13:03:24;94911.75;;;9.08;100.00
4617;BME280;2321;42.704;23.384;2023-11-21T13:05:52;94918.34;;;9.12;100.00
4617;BME280;2321;42.704;23.384;2023-11-21T13:08:22;94911.63;;;9.17;100.00
4617;BME280;2321;42.704;23.384;2023-11-21T13:10:50;94907.75;;;9.19;100.00
4617;BME280;2321;42.704;23.384;2023-11-21T13:13:19;94915.06;;;9.17;100.00
4617;BME280;2321;42.704;23.384;2023-11-21T13:15:50;94907.94;;;9.18;100.00
4617;BME280;2321;42.704;23.384;2023-11-21T13:18:17;94916.53;;;9.20;100.00